Time,TemperatureF,DewpointF,PressureIn,WindDirection,WindDirectionDegrees,WindSpeedMPH,WindSpeedGustMPH,Humidity,HourlyPrecipIn,Conditions,Clouds,dailyrainin,SoftwareType,DateUTC
2013-05-15 00:10:00,54.7,35.1,29.40,South,180,3.8,5.6,48,0.00,,,0.00,WUHU21623XXSP,2013-05-15 04:10:00,
2013-05-15 00:15:00,54.5,34.9,29.42,South,180,0.0,7.6,48,0.00,,,0.00,WUHU21623XXSP,2013-05-15 04:15:00,
2013-05-15 00:23:00,54.3,34.7,29.42,South,180,0.0,0.0,48,0.00,,,0.00,WUHU21623XXSP,2013-05-15 04:23:00,
2013-05-15 00:28:00,54.5,34.9,29.41,SSE,157,0.0,2.2,48,0.00,,,0.00,WUHU21623XXSP,2013-05-15 04:28:00,
2013-05-15 00:33:00,54.3,34.7,29.41,SSE,157,0.0,2.2,48,0.00,,,0.00,WUHU21623XXSP,2013-05-15 04:33:00,
2013-05-15 00:38:00,54.3,34.7,29.41,SSE,157,1.4,1.6,48,0.00,,,0.00,WUHU21623XXSP,2013-05-15 04:38:00,
2013-05-15 00:43:00,54.3,34.7,29.41,WNW,292,0.0,1.6,48,0.00,,,0.00,WUHU21623XXSP,2013-05-15 04:43:00,
2013-05-15 00:48:00,54.1,34.5,29.42,WNW,292,0.0,1.1,48,0.00,,,0.00,WUHU21623XXSP,2013-05-15 04:48:00,
2013-05-15 00:53:00,54.3,34.7,29.42,SW,225,2.0,2.2,48,0.00,,,0.00,WUHU21623XXSP,2013-05-15 04:53:00,
2013-05-15 01:00:00,54.3,34.7,29.42,SW,225,0.0,2.2,48,0.00,,,0.00,WUHU21623XXSP,2013-05-15 05:00:00,
2013-05-15 01:05:00,54.3,34.7,29.41,SW,225,0.0,1.6,48,0.00,,,0.00,WUHU21623XXSP,2013-05-15 05:05:00,
2013-05-15 01:11:00,54.3,34.7,29.41,NNE,22,0.0,2.9,48,0.00,,,0.00,WUHU21623XXSP,2013-05-15 05:11:00,
2013-05-15 01:16:00,54.3,34.7,29.40,NNE,22,0.0,2.9,48,0.00,,,0.00,WUHU21623XXSP,2013-05-15 05:16:00,
2013-05-15 01:25:00,54.1,34.5,29.40,NNE,22,0.0,0.0,48,0.00,,,0.00,WUHU21623XXSP,2013-05-15 05:25:00,
2013-05-15 01:30:00,54.1,34.5,29.39,NNE,22,0.0,0.0,48,0.00,,,0.00,WUHU21623XXSP,2013-05-15 05:30:00,
2013-05-15 01:35:00,54.1,34.5,29.40,NNE,22,0.0,1.6,48,0.00,,,0.00,WUHU21623XXSP,2013-05-15 05:35:00,
2013-05-15 01:40:00,54.1,34.5,29.40,NNE,22,0.0,1.6,48,0.00,,,0.00,WUHU21623XXSP,2013-05-15 05:40:00,
2013-05-15 01:47:00,54.1,34.5,29.40,NNE,22,0.0,0.0,48,0.00,,,0.00,WUHU21623XXSP,2013-05-15 05:47:00,
2013-05-15 01:52:00,54.1,34.5,29.40,NNE,22,0.0,0.0,48,0.00,,,0.00,WUHU21623XXSP,2013-05-15 05:52:00,
2013-05-15 01:57:00,54.1,34.5,29.39,NNE,22,0.0,0.0,48,0.00,,,0.00,WUHU21623XXSP,2013-05-15 05:57:00,
2013-05-15 02:02:00,54.1,34.5,29.38,NE,45,0.0,0.0,48,0.00,,,0.00,WUHU21623XXSP,2013-05-15 06:02:00,
2013-05-15 02:07:00,54.1,34.5,29.38,South,180,1.5,3.6,48,0.00,,,0.00,WUHU21623XXSP,2013-05-15 06:07:00,
2013-05-15 02:12:00,54.1,34.5,29.38,South,180,5.4,5.8,48,0.00,,,0.00,WUHU21623XXSP,2013-05-15 06:12:00,
2013-05-15 02:21:00,54.1,34.5,29.37,SE,135,1.5,5.4,48,0.00,,,0.00,WUHU21623XXSP,2013-05-15 06:21:00,
2013-05-15 02:27:00,54.1,34.5,29.36,ESE,112,2.6,4.3,48,0.00,,,0.00,WUHU21623XXSP,2013-05-15 06:27:00,
2013-05-15 02:32:00,54.1,34.5,29.34,SSE,157,3.4,5.8,48,0.00,,,0.00,WUHU21623XXSP,2013-05-15 06:32:00,
2013-05-15 02:37:00,54.3,34.7,29.34,South,180,4.5,5.8,48,0.00,,,0.00,WUHU21623XXSP,2013-05-15 06:37:00,
2013-05-15 02:42:00,54.3,34.7,29.35,WNW,292,2.3,4.5,48,0.00,,,0.00,WUHU21623XXSP,2013-05-15 06:42:00,
2013-05-15 02:47:00,54.5,34.9,29.35,WNW,292,2.5,4.3,48,0.00,,,0.00,WUHU21623XXSP,2013-05-15 06:47:00,
2013-05-15 02:52:00,54.5,34.9,29.34,SSE,164,4.2,5.6,48,0.00,,,0.00,WUHU21623XXSP,2013-05-15 06:52:00,
2013-05-15 02:57:00,54.5,34.9,29.34,WSW,240,1.8,5.6,48,0.00,,,0.00,WUHU21623XXSP,2013-05-15 06:57:00,
2013-05-15 03:02:00,54.7,35.1,29.34,ESE,112,0.0,2.5,48,0.00,,,0.00,WUHU21623XXSP,2013-05-15 07:02:00,
2013-05-15 03:07:00,54.7,35.1,29.34,NNE,22,0.0,0.7,48,0.00,,,0.00,WUHU21623XXSP,2013-05-15 07:07:00,
2013-05-15 03:12:00,54.7,35.1,29.33,SE,135,0.0,0.0,48,0.00,,,0.00,WUHU21623XXSP,2013-05-15 07:12:00,
2013-05-15 03:17:00,54.9,35.3,29.33,SE,135,0.0,2.7,48,0.00,,,0.00,WUHU21623XXSP,2013-05-15 07:17:00,
2013-05-15 03:22:00,54.7,35.1,29.33,SSW,202,0.0,2.7,48,0.00,,,0.00,WUHU21623XXSP,2013-05-15 07:22:00,
2013-05-15 03:28:00,54.7,35.1,29.33,SE,135,0.0,4.3,48,0.00,,,0.00,WUHU21623XXSP,2013-05-15 07:28:00,
2013-05-15 03:33:00,54.5,34.9,29.33,SSE,157,2.0,4.5,48,0.00,,,0.00,WUHU21623XXSP,2013-05-15 07:33:00,
2013-05-15 03:38:00,54.5,34.9,29.32,South,180,2.8,4.9,48,0.00,,,0.00,WUHU21623XXSP,2013-05-15 07:38:00,
2013-05-15 03:44:00,54.5,34.9,29.32,SSE,157,2.9,4.9,48,0.00,,,0.00,WUHU21623XXSP,2013-05-15 07:44:00,
2013-05-15 03:49:00,54.3,34.7,29.32,SE,135,1.9,2.9,48,0.00,,,0.00,WUHU21623XXSP,2013-05-15 07:49:00,
2013-05-15 03:54:00,54.3,34.7,29.32,SSE,160,1.9,3.6,48,0.00,,,0.00,WUHU21623XXSP,2013-05-15 07:54:00,
2013-05-15 03:59:00,54.3,34.7,29.32,SSE,157,0.0,3.6,48,0.00,,,0.00,WUHU21623XXSP,2013-05-15 07:59:00,
2013-05-15 04:04:00,54.1,34.5,29.32,South,180,0.0,3.1,48,0.00,,,0.00,WUHU21623XXSP,2013-05-15 08:04:00,
2013-05-15 04:09:00,54.3,34.7,29.31,South,169,2.6,2.7,48,0.00,,,0.00,WUHU21623XXSP,2013-05-15 08:09:00,
2013-05-15 04:15:00,54.1,34.5,29.31,South,169,2.6,2.7,48,0.00,,,0.00,WUHU21623XXSP,2013-05-15 08:15:00,
2013-05-15 04:20:00,54.1,34.5,29.31,SSE,157,0.0,4.7,48,0.00,,,0.00,WUHU21623XXSP,2013-05-15 08:20:00,
2013-05-15 04:25:00,54.0,34.4,29.30,SSE,157,2.5,4.7,48,0.00,,,0.00,WUHU21623XXSP,2013-05-15 08:25:00,
2013-05-15 04:30:00,54.0,34.4,29.30,SSE,157,2.0,4.3,48,0.00,,,0.00,WUHU21623XXSP,2013-05-15 08:30:00,
2013-05-15 04:35:00,54.0,34.4,29.30,SSE,157,2.5,3.1,48,0.00,,,0.00,WUHU21623XXSP,2013-05-15 08:35:00,
2013-05-15 04:40:00,54.0,34.4,29.30,SSE,157,1.1,2.5,48,0.00,,,0.00,WUHU21623XXSP,2013-05-15 08:40:00,
2013-05-15 04:45:00,53.8,34.2,29.29,SSE,157,0.7,2.0,48,0.00,,,0.00,WUHU21623XXSP,2013-05-15 08:45:00,
2013-05-15 04:57:00,53.8,34.2,29.29,SSE,157,0.0,4.3,48,0.00,,,0.00,WUHU21623XXSP,2013-05-15 08:57:00,
2013-05-15 05:02:00,53.8,35.6,29.29,South,176,1.2,4.3,50,0.00,,,0.00,WUHU21623XXSP,2013-05-15 09:02:00,
2013-05-15 05:07:00,54.0,37.0,29.28,SSE,151,2.5,5.8,53,0.00,,,0.00,WUHU21623XXSP,2013-05-15 09:07:00,
2013-05-15 05:12:00,54.0,38.3,29.28,SSE,157,2.1,5.8,55,0.00,,,0.00,WUHU21623XXSP,2013-05-15 09:12:00,
2013-05-15 05:17:00,54.0,38.3,29.28,SSE,157,0.0,5.4,55,0.00,,,0.00,WUHU21623XXSP,2013-05-15 09:17:00,
2013-05-15 05:22:00,54.1,39.5,29.28,SSE,157,0.9,0.9,58,0.00,,,0.00,WUHU21623XXSP,2013-05-15 09:22:00,
2013-05-15 05:27:00,54.3,39.7,29.28,SSE,157,0.0,3.1,58,0.00,,,0.00,WUHU21623XXSP,2013-05-15 09:27:00,
2013-05-15 05:32:00,54.3,39.7,29.28,SSE,160,1.5,3.1,58,0.00,,,0.00,WUHU21623XXSP,2013-05-15 09:32:00,
2013-05-15 05:37:00,54.3,39.7,29.28,South,180,1.4,2.0,58,0.00,,,0.00,WUHU21623XXSP,2013-05-15 09:37:00,
2013-05-15 05:42:00,54.5,39.9,29.28,SSE,157,0.0,1.4,58,0.00,,,0.00,WUHU21623XXSP,2013-05-15 09:42:00,
2013-05-15 05:47:00,54.5,39.9,29.28,SSE,157,0.0,1.6,58,0.00,,,0.00,WUHU21623XXSP,2013-05-15 09:47:00,
2013-05-15 05:52:00,54.5,39.9,29.28,SSE,157,0.0,1.6,58,0.00,,,0.00,WUHU21623XXSP,2013-05-15 09:52:00,
2013-05-15 05:57:00,54.5,39.9,29.28,SSE,157,1.3,3.1,58,0.00,,,0.00,WUHU21623XXSP,2013-05-15 09:57:00,
2013-05-15 06:02:00,54.5,41.0,29.27,SSE,157,0.0,3.1,60,0.00,,,0.00,WUHU21623XXSP,2013-05-15 10:02:00,
2013-05-15 06:07:00,54.5,41.0,29.27,SSE,157,0.0,0.0,60,0.00,,,0.00,WUHU21623XXSP,2013-05-15 10:07:00,
2013-05-15 06:12:00,54.7,41.2,29.27,SSE,157,0.9,0.9,60,0.00,,,0.00,WUHU21623XXSP,2013-05-15 10:12:00,
2013-05-15 06:17:00,54.7,41.2,29.27,SE,135,0.0,0.9,60,0.00,,,0.00,WUHU21623XXSP,2013-05-15 10:17:00,
2013-05-15 06:22:00,54.7,41.2,29.27,SE,135,0.0,0.0,60,0.00,,,0.00,WUHU21623XXSP,2013-05-15 10:22:00,
2013-05-15 06:27:00,54.9,41.4,29.27,SE,135,0.0,0.0,60,0.00,,,0.00,WUHU21623XXSP,2013-05-15 10:27:00,
2013-05-15 06:32:00,55.0,42.5,29.27,SE,135,0.0,0.0,63,0.00,,,0.00,WUHU21623XXSP,2013-05-15 10:32:00,
2013-05-15 06:37:00,55.2,43.8,29.27,SE,135,0.0,0.0,65,0.00,,,0.00,WUHU21623XXSP,2013-05-15 10:37:00,
2013-05-15 06:42:00,55.4,44.0,29.27,SE,135,0.0,0.0,65,0.00,,,0.00,WUHU21623XXSP,2013-05-15 10:42:00,
2013-05-15 06:47:00,55.6,44.1,29.27,SE,135,0.0,0.0,65,0.00,,,0.00,WUHU21623XXSP,2013-05-15 10:47:00,
2013-05-15 06:52:00,55.8,45.3,29.27,SE,135,0.0,0.0,68,0.00,,,0.00,WUHU21623XXSP,2013-05-15 10:52:00,
2013-05-15 06:57:00,56.1,46.6,29.27,South,180,0.0,0.0,70,0.00,,,0.00,WUHU21623XXSP,2013-05-15 10:57:00,
2013-05-15 07:03:00,56.7,47.1,29.27,South,180,0.0,0.0,70,0.00,,,0.00,WUHU21623XXSP,2013-05-15 11:03:00,
2013-05-15 07:09:00,57.0,48.4,29.27,South,180,0.0,0.0,73,0.00,,,0.00,WUHU21623XXSP,2013-05-15 11:09:00,
2013-05-15 07:14:00,57.6,48.9,29.27,SSW,202,0.0,0.0,73,0.00,,,0.00,WUHU21623XXSP,2013-05-15 11:14:00,
2013-05-15 07:19:00,58.1,49.4,29.28,SW,225,1.8,1.8,73,0.00,,,0.00,WUHU21623XXSP,2013-05-15 11:19:00,
2013-05-15 07:24:00,58.6,49.9,29.28,SSW,202,0.0,1.8,73,0.00,,,0.00,WUHU21623XXSP,2013-05-15 11:24:00,
2013-05-15 07:29:00,59.2,51.4,29.27,WSW,247,0.0,1.8,75,0.00,,,0.00,WUHU21623XXSP,2013-05-15 11:29:00,
2013-05-15 07:34:00,60.1,51.4,29.28,WSW,247,0.0,3.1,73,0.00,,,0.00,WUHU21623XXSP,2013-05-15 11:34:00,
2013-05-15 07:39:00,60.8,51.1,29.28,WSW,247,1.8,3.1,70,0.00,,,0.00,WUHU21623XXSP,2013-05-15 11:39:00,
2013-05-15 07:44:00,61.3,51.6,29.28,SW,235,1.8,4.9,70,0.00,,,0.00,WUHU21623XXSP,2013-05-15 11:44:00,
2013-05-15 07:49:00,61.7,51.0,29.28,WSW,247,2.0,4.9,68,0.00,,,0.00,WUHU21623XXSP,2013-05-15 11:49:00,
2013-05-15 07:54:00,62.4,50.6,29.28,South,180,0.0,2.5,65,0.00,,,0.00,WUHU21623XXSP,2013-05-15 11:54:00,
2013-05-15 07:59:00,63.0,50.1,29.28,WSW,239,2.3,3.8,63,0.00,,,0.00,WUHU21623XXSP,2013-05-15 11:59:00,
2013-05-15 08:05:00,63.5,48.4,29.29,West,266,3.3,4.9,58,0.00,,,0.00,WUHU21623XXSP,2013-05-15 12:05:00,
2013-05-15 08:11:00,64.6,48.2,29.29,SW,225,2.0,5.8,55,0.00,,,0.00,WUHU21623XXSP,2013-05-15 12:11:00,
2013-05-15 08:16:00,65.3,47.5,29.29,SW,230,1.5,5.8,53,0.00,,,0.00,WUHU21623XXSP,2013-05-15 12:16:00,
2013-05-15 08:21:00,66.0,46.9,29.29,WSW,247,0.0,3.1,50,0.00,,,0.00,WUHU21623XXSP,2013-05-15 12:21:00,
2013-05-15 08:26:00,66.6,46.0,29.30,WNW,292,3.1,4.7,48,0.00,,,0.00,WUHU21623XXSP,2013-05-15 12:26:00,
2013-05-15 08:31:00,67.8,47.1,29.30,WSW,255,3.0,5.4,48,0.00,,,0.00,WUHU21623XXSP,2013-05-15 12:31:00,
2013-05-15 08:36:00,68.7,47.9,29.30,WSW,258,2.4,5.4,48,0.00,,,0.00,WUHU21623XXSP,2013-05-15 12:36:00,
2013-05-15 08:42:00,69.3,48.5,29.30,NW,315,2.9,5.6,48,0.00,,,0.00,WUHU21623XXSP,2013-05-15 12:42:00,
2013-05-15 08:47:00,70.2,49.3,29.30,West,263,2.3,5.6,48,0.00,,,0.00,WUHU21623XXSP,2013-05-15 12:47:00,
2013-05-15 08:52:00,70.9,50.0,29.31,West,262,3.3,7.2,48,0.00,,,0.00,WUHU21623XXSP,2013-05-15 12:52:00,
2013-05-15 08:57:00,71.2,50.2,29.31,West,279,3.0,10.7,48,0.00,,,0.00,WUHU21623XXSP,2013-05-15 12:57:00,
2013-05-15 09:02:00,72.0,51.0,29.30,WSW,247,3.1,10.7,48,0.00,,,0.00,WUHU21623XXSP,2013-05-15 13:02:00,
2013-05-15 09:07:00,72.1,51.1,29.31,NW,315,5.3,10.5,48,0.00,,,0.00,WUHU21623XXSP,2013-05-15 13:07:00,
2013-05-15 09:13:00,72.5,51.4,29.31,NW,322,8.5,57.0,48,0.00,,,0.00,WUHU21623XXSP,2013-05-15 13:13:00,
2013-05-15 09:18:00,72.7,51.6,29.31,NW,322,3.3,57.0,48,0.00,,,0.00,WUHU21623XXSP,2013-05-15 13:18:00,
2013-05-15 09:23:00,73.0,51.9,29.32,NW,315,9.4,57.0,48,0.00,,,0.00,WUHU21623XXSP,2013-05-15 13:23:00,
2013-05-15 09:28:00,73.2,52.1,29.32,North,0,57.0,57.0,48,0.00,,,0.00,WUHU21623XXSP,2013-05-15 13:28:00,
2013-05-15 09:33:00,73.6,52.4,29.32,WNW,282,2.9,57.0,48,0.00,,,0.00,WUHU21623XXSP,2013-05-15 13:33:00,
2013-05-15 09:38:00,73.8,52.6,29.32,WNW,292,2.7,57.0,48,0.00,,,0.00,WUHU21623XXSP,2013-05-15 13:38:00,
2013-05-15 09:43:00,74.1,52.9,29.33,NNW,337,8.3,8.7,48,0.00,,,0.00,WUHU21623XXSP,2013-05-15 13:43:00,
2013-05-15 09:48:00,74.3,53.1,29.33,North,353,11.9,57.0,48,0.00,,,0.00,WUHU21623XXSP,2013-05-15 13:48:00,
2013-05-15 09:54:00,74.7,53.5,29.33,West,270,2.7,57.0,48,0.00,,,0.00,WUHU21623XXSP,2013-05-15 13:54:00,
2013-05-15 09:59:00,75.0,53.7,29.33,WNW,292,4.7,6.3,48,0.00,,,0.00,WUHU21623XXSP,2013-05-15 13:59:00,
2013-05-15 10:04:00,75.6,54.3,29.33,NW,324,3.4,8.7,48,0.00,,,0.00,WUHU21623XXSP,2013-05-15 14:04:00,
2013-05-15 10:09:00,76.1,54.7,29.33,NW,305,2.6,8.7,48,0.00,,,0.00,WUHU21623XXSP,2013-05-15 14:09:00,
2013-05-15 10:15:00,76.5,55.1,29.33,WNW,292,2.2,5.8,48,0.00,,,0.00,WUHU21623XXSP,2013-05-15 14:15:00,
2013-05-15 10:20:00,77.0,55.6,29.33,NW,326,3.1,6.0,48,0.00,,,0.00,WUHU21623XXSP,2013-05-15 14:20:00,
2013-05-15 10:25:00,77.4,55.9,29.33,WNW,303,3.9,6.0,48,0.00,,,0.00,WUHU21623XXSP,2013-05-15 14:25:00,
2013-05-15 10:30:00,77.4,55.9,29.33,NNW,337,3.4,57.0,48,0.00,,,0.00,WUHU21623XXSP,2013-05-15 14:30:00,
2013-05-15 10:35:00,77.7,56.2,29.33,WNW,292,4.5,57.0,48,0.00,,,0.00,WUHU21623XXSP,2013-05-15 14:35:00,
2013-05-15 10:41:00,77.9,56.4,29.33,North,0,5.4,7.6,48,0.00,,,0.00,WUHU21623XXSP,2013-05-15 14:41:00,
2013-05-15 10:46:00,78.3,56.8,29.34,NW,315,1.1,7.6,48,0.00,,,0.00,WUHU21623XXSP,2013-05-15 14:46:00,
2013-05-15 10:51:00,78.4,56.9,29.34,WNW,292,4.9,7.6,48,0.00,,,0.00,WUHU21623XXSP,2013-05-15 14:51:00,
2013-05-15 10:56:00,78.6,57.0,29.33,North,0,57.0,57.0,48,0.00,,,0.00,WUHU21623XXSP,2013-05-15 14:56:00,
2013-05-15 11:02:00,78.6,57.0,29.33,NNW,347,8.0,57.0,48,0.00,,,0.00,WUHU21623XXSP,2013-05-15 15:02:00,
2013-05-15 11:07:00,79.0,57.4,29.34,WNW,292,4.0,57.0,48,0.00,,,0.00,WUHU21623XXSP,2013-05-15 15:07:00,
2013-05-15 11:12:00,79.2,57.6,29.33,NNW,345,7.8,57.0,48,0.00,,,0.00,WUHU21623XXSP,2013-05-15 15:12:00,
2013-05-15 11:17:00,79.3,57.7,29.34,West,270,1.8,57.0,48,0.00,,,0.00,WUHU21623XXSP,2013-05-15 15:17:00,
2013-05-15 11:22:00,79.5,57.9,29.34,WNW,292,4.9,57.0,48,0.00,,,0.00,WUHU21623XXSP,2013-05-15 15:22:00,
2013-05-15 11:27:00,79.7,58.0,29.34,NW,309,3.4,57.0,48,0.00,,,0.00,WUHU21623XXSP,2013-05-15 15:27:00,
2013-05-15 11:32:00,79.7,58.0,29.35,NW,304,3.6,9.6,48,0.00,,,0.00,WUHU21623XXSP,2013-05-15 15:32:00,
2013-05-15 11:38:00,79.7,58.0,29.35,NNW,347,7.6,57.0,48,0.00,,,0.00,WUHU21623XXSP,2013-05-15 15:38:00,
2013-05-15 11:43:00,80.1,58.4,29.35,NW,319,2.4,57.0,48,0.00,,,0.00,WUHU21623XXSP,2013-05-15 15:43:00,
2013-05-15 11:48:00,80.4,58.7,29.35,WNW,286,2.8,5.6,48,0.00,,,0.00,WUHU21623XXSP,2013-05-15 15:48:00,
2013-05-15 11:53:00,80.8,59.1,29.35,West,270,1.3,5.1,48,0.00,,,0.00,WUHU21623XXSP,2013-05-15 15:53:00,
2013-05-15 11:58:00,81.3,59.5,29.35,SW,225,3.6,7.8,48,0.00,,,0.00,WUHU21623XXSP,2013-05-15 15:58:00,
2013-05-15 12:03:00,81.5,59.7,29.36,West,262,2.8,7.8,48,0.00,,,0.00,WUHU21623XXSP,2013-05-15 16:03:00,
2013-05-15 12:09:00,81.5,59.7,29.36,WNW,292,3.6,6.3,48,0.00,,,0.00,WUHU21623XXSP,2013-05-15 16:09:00,
2013-05-15 12:14:00,81.5,59.7,29.36,North,352,13.4,57.0,48,0.00,,,0.00,WUHU21623XXSP,2013-05-15 16:14:00,
2013-05-15 12:19:00,81.5,59.7,29.37,NW,324,3.6,57.0,48,0.00,,,0.00,WUHU21623XXSP,2013-05-15 16:19:00,
2013-05-15 12:24:00,81.7,59.9,29.37,NNW,345,8.1,57.0,48,0.00,,,0.00,WUHU21623XXSP,2013-05-15 16:24:00,
2013-05-15 12:29:00,81.7,59.9,29.38,NNW,336,9.2,57.0,48,0.00,,,0.00,WUHU21623XXSP,2013-05-15 16:29:00,
2013-05-15 12:34:00,81.9,60.1,29.38,North,349,11.5,57.0,48,0.00,,,0.00,WUHU21623XXSP,2013-05-15 16:34:00,
2013-05-15 12:39:00,81.9,60.1,29.38,NW,323,2.4,57.0,48,0.00,,,0.00,WUHU21623XXSP,2013-05-15 16:39:00,
2013-05-15 12:44:00,81.9,60.1,29.38,WNW,292,4.5,57.0,48,0.00,,,0.00,WUHU21623XXSP,2013-05-15 16:44:00,
2013-05-15 12:49:00,82.0,60.2,29.38,NNW,340,10.3,57.0,48,0.00,,,0.00,WUHU21623XXSP,2013-05-15 16:49:00,
2013-05-15 12:54:00,81.5,59.7,29.39,WNW,292,4.3,57.0,48,0.00,,,0.00,WUHU21623XXSP,2013-05-15 16:54:00,
2013-05-15 13:00:00,81.5,59.7,29.39,North,350,13.8,57.0,48,0.00,,,0.00,WUHU21623XXSP,2013-05-15 17:00:00,
2013-05-15 13:05:00,81.5,59.7,29.39,West,270,4.0,57.0,48,0.00,,,0.00,WUHU21623XXSP,2013-05-15 17:05:00,
2013-05-15 13:10:00,81.5,59.7,29.39,NW,315,8.3,8.3,48,0.00,,,0.00,WUHU21623XXSP,2013-05-15 17:10:00,
2013-05-15 13:15:00,81.7,59.9,29.39,North,0,8.5,57.0,48,0.00,,,0.00,WUHU21623XXSP,2013-05-15 17:15:00,
2013-05-15 13:20:00,81.5,59.7,29.39,WNW,292,5.8,57.0,48,0.00,,,0.00,WUHU21623XXSP,2013-05-15 17:20:00,
2013-05-15 13:25:00,81.1,59.3,29.39,NW,326,5.2,8.5,48,0.00,,,0.00,WUHU21623XXSP,2013-05-15 17:25:00,
2013-05-15 13:30:00,81.0,59.2,29.39,NNW,337,9.4,9.4,48,0.00,,,0.00,WUHU21623XXSP,2013-05-15 17:30:00,
2013-05-15 13:41:00,80.8,59.1,29.40,NNW,342,7.5,57.0,48,0.00,,,0.00,WUHU21623XXSP,2013-05-15 17:41:00,
2013-05-15 13:47:00,81.1,59.3,29.40,WNW,298,2.8,7.2,48,0.00,,,0.00,WUHU21623XXSP,2013-05-15 17:47:00,
2013-05-15 13:58:00,81.3,59.5,29.40,NW,315,4.5,7.2,48,0.00,,,0.00,WUHU21623XXSP,2013-05-15 17:58:00,
2013-05-15 14:00:00,81.3,59.5,29.40,SW,233,3.1,57.0,48,0.00,,,0.00,WUHU21623XXSP,2013-05-15 18:00:00,
2013-05-15 14:05:00,81.5,59.7,29.40,North,355,11.2,57.0,48,0.00,,,0.00,WUHU21623XXSP,2013-05-15 18:05:00,
2013-05-15 14:17:00,81.5,59.7,29.40,WSW,256,4.5,57.0,48,0.00,,,0.00,WUHU21623XXSP,2013-05-15 18:17:00,
2013-05-15 14:23:00,81.5,59.7,29.40,NNW,347,7.0,57.0,48,0.00,,,0.00,WUHU21623XXSP,2013-05-15 18:23:00,
2013-05-15 14:28:00,81.3,59.5,29.40,NNW,335,2.2,57.0,48,0.00,,,0.00,WUHU21623XXSP,2013-05-15 18:28:00,
2013-05-15 14:34:00,81.3,59.5,29.40,West,270,3.1,57.0,48,0.00,,,0.00,WUHU21623XXSP,2013-05-15 18:34:00,
2013-05-15 14:38:00,81.1,59.3,29.40,NNW,337,3.8,7.8,48,0.00,,,0.00,WUHU21623XXSP,2013-05-15 18:38:00,
2013-05-15 14:43:00,81.0,59.2,29.40,WNW,299,2.5,57.0,48,0.00,,,0.00,WUHU21623XXSP,2013-05-15 18:43:00,
2013-05-15 14:48:00,81.1,59.3,29.40,West,262,2.2,57.0,48,0.00,,,0.00,WUHU21623XXSP,2013-05-15 18:48:00,
2013-05-15 14:53:00,81.3,59.5,29.40,NW,315,4.0,57.0,48,0.00,,,0.00,WUHU21623XXSP,2013-05-15 18:53:00,
2013-05-15 14:59:00,81.3,59.5,29.40,NNE,22,3.6,57.0,48,0.00,,,0.00,WUHU21623XXSP,2013-05-15 18:59:00,
2013-05-15 15:03:00,81.0,59.2,29.40,North,349,2.4,6.7,48,0.00,,,0.00,WUHU21623XXSP,2013-05-15 19:03:00,
2013-05-15 15:09:00,81.3,59.5,29.41,SW,233,3.7,57.0,48,0.00,,,0.00,WUHU21623XXSP,2013-05-15 19:09:00,
2013-05-15 15:14:00,81.7,59.9,29.41,North,0,2.5,57.0,48,0.00,,,0.00,WUHU21623XXSP,2013-05-15 19:14:00,
2013-05-15 15:19:00,81.5,59.7,29.41,NNW,333,9.3,57.0,48,0.00,,,0.00,WUHU21623XXSP,2013-05-15 19:19:00,
2013-05-15 15:24:00,81.9,60.1,29.41,NNW,337,7.5,57.0,48,0.00,,,0.00,WUHU21623XXSP,2013-05-15 19:24:00,
2013-05-15 15:29:00,81.9,60.1,29.41,North,352,18.6,57.0,48,0.00,,,0.00,WUHU21623XXSP,2013-05-15 19:29:00,
2013-05-15 15:34:00,81.5,59.7,29.41,NNW,328,2.9,57.0,48,0.00,,,0.00,WUHU21623XXSP,2013-05-15 19:34:00,
2013-05-15 15:40:00,81.7,59.9,29.40,WSW,247,2.8,57.0,48,0.00,,,0.00,WUHU21623XXSP,2013-05-15 19:40:00,
2013-05-15 15:45:00,81.9,60.1,29.41,NNW,333,10.4,57.0,48,0.00,,,0.00,WUHU21623XXSP,2013-05-15 19:45:00,
2013-05-15 15:55:00,81.5,59.7,29.40,WSW,247,4.5,57.0,48,0.00,,,0.00,WUHU21623XXSP,2013-05-15 19:55:00,
2013-05-15 16:00:00,81.0,59.2,29.40,NNW,336,9.5,57.0,48,0.00,,,0.00,WUHU21623XXSP,2013-05-15 20:00:00,
2013-05-15 16:06:00,80.4,58.7,29.40,WSW,247,3.0,57.0,48,0.00,,,0.00,WUHU21623XXSP,2013-05-15 20:06:00,
2013-05-15 16:11:00,80.2,58.5,29.41,WSW,247,3.2,57.0,48,0.00,,,0.00,WUHU21623XXSP,2013-05-15 20:11:00,
2013-05-15 16:16:00,80.1,58.4,29.41,WSW,247,2.2,57.0,48,0.00,,,0.00,WUHU21623XXSP,2013-05-15 20:16:00,
2013-05-15 16:21:00,80.1,58.4,29.41,WSW,247,1.9,5.4,48,0.00,,,0.00,WUHU21623XXSP,2013-05-15 20:21:00,
2013-05-15 16:26:00,80.1,58.4,29.41,North,0,57.0,57.0,48,0.00,,,0.00,WUHU21623XXSP,2013-05-15 20:26:00,
2013-05-15 16:31:00,79.9,58.2,29.41,SW,233,3.2,57.0,48,0.00,,,0.00,WUHU21623XXSP,2013-05-15 20:31:00,
2013-05-15 16:36:00,79.7,58.0,29.41,NW,314,3.0,57.0,48,0.00,,,0.00,WUHU21623XXSP,2013-05-15 20:36:00,
2013-05-15 16:41:00,79.5,57.9,29.40,NW,315,4.3,57.0,48,0.00,,,0.00,WUHU21623XXSP,2013-05-15 20:41:00,
2013-05-15 16:46:00,79.5,57.9,29.40,NW,322,3.4,57.0,48,0.00,,,0.00,WUHU21623XXSP,2013-05-15 20:46:00,
2013-05-15 16:52:00,79.3,57.7,29.41,North,0,57.0,57.0,48,0.00,,,0.00,WUHU21623XXSP,2013-05-15 20:52:00,
2013-05-15 16:57:00,79.2,57.6,29.41,WNW,292,5.4,57.0,48,0.00,,,0.00,WUHU21623XXSP,2013-05-15 20:57:00,
2013-05-15 17:02:00,79.5,57.9,29.41,North,0,3.4,57.0,48,0.00,,,0.00,WUHU21623XXSP,2013-05-15 21:02:00,
2013-05-15 17:07:00,79.3,57.7,29.40,West,263,1.5,57.0,48,0.00,,,0.00,WUHU21623XXSP,2013-05-15 21:07:00,
2013-05-15 17:12:00,79.5,57.9,29.41,NNW,334,7.1,57.0,48,0.00,,,0.00,WUHU21623XXSP,2013-05-15 21:12:00,
2013-05-15 17:17:00,79.2,57.6,29.41,NNW,332,2.5,57.0,48,0.00,,,0.00,WUHU21623XXSP,2013-05-15 21:17:00,
2013-05-15 17:22:00,79.2,57.6,29.41,NNW,337,5.1,57.0,48,0.00,,,0.00,WUHU21623XXSP,2013-05-15 21:22:00,
2013-05-15 17:27:00,79.2,57.6,29.41,North,357,1.8,57.0,48,0.00,,,0.00,WUHU21623XXSP,2013-05-15 21:27:00,
2013-05-15 17:32:00,79.2,57.6,29.41,NNE,22,2.5,57.0,48,0.00,,,0.00,WUHU21623XXSP,2013-05-15 21:32:00,
2013-05-15 17:38:00,79.0,57.4,29.40,NNW,337,3.8,57.0,48,0.00,,,0.00,WUHU21623XXSP,2013-05-15 21:38:00,
2013-05-15 17:43:00,78.8,57.2,29.40,WNW,284,2.4,57.0,48,0.00,,,0.00,WUHU21623XXSP,2013-05-15 21:43:00,
2013-05-15 17:48:00,78.6,57.0,29.40,NW,319,1.8,57.0,48,0.00,,,0.00,WUHU21623XXSP,2013-05-15 21:48:00,
2013-05-15 17:53:00,78.4,56.9,29.40,WNW,287,2.8,57.0,48,0.00,,,0.00,WUHU21623XXSP,2013-05-15 21:53:00,
2013-05-15 17:58:00,78.4,56.9,29.40,North,356,12.4,57.0,48,0.00,,,0.00,WUHU21623XXSP,2013-05-15 21:58:00,
2013-05-15 18:03:00,78.6,57.0,29.41,WNW,292,3.1,57.0,48,0.00,,,0.00,WUHU21623XXSP,2013-05-15 22:03:00,
2013-05-15 18:08:00,79.0,57.4,29.41,WNW,287,1.8,5.4,48,0.00,,,0.00,WUHU21623XXSP,2013-05-15 22:08:00,
2013-05-15 18:13:00,79.0,57.4,29.41,NW,304,2.6,6.7,48,0.00,,,0.00,WUHU21623XXSP,2013-05-15 22:13:00,
2013-05-15 18:19:00,78.6,57.0,29.41,NNW,334,1.7,57.0,48,0.00,,,0.00,WUHU21623XXSP,2013-05-15 22:19:00,
2013-05-15 18:24:00,79.0,57.4,29.41,North,356,20.3,57.0,48,0.00,,,0.00,WUHU21623XXSP,2013-05-15 22:24:00,
2013-05-15 18:29:00,79.7,58.0,29.41,West,268,1.9,57.0,48,0.00,,,0.00,WUHU21623XXSP,2013-05-15 22:29:00,
2013-05-15 18:34:00,79.7,58.0,29.41,WSW,238,1.9,57.0,48,0.00,,,0.00,WUHU21623XXSP,2013-05-15 22:34:00,
2013-05-15 18:40:00,79.7,58.0,29.42,North,357,15.9,57.0,48,0.00,,,0.00,WUHU21623XXSP,2013-05-15 22:40:00,
2013-05-15 18:45:00,79.9,58.2,29.41,North,352,11.0,57.0,48,0.00,,,0.00,WUHU21623XXSP,2013-05-15 22:45:00,
2013-05-15 18:50:00,80.1,58.4,29.41,North,356,13.2,57.0,48,0.00,,,0.00,WUHU21623XXSP,2013-05-15 22:50:00,
2013-05-15 18:55:00,79.5,57.9,29.41,North,356,13.1,57.0,48,0.00,,,0.00,WUHU21623XXSP,2013-05-15 22:55:00,
2013-05-15 19:00:00,79.0,57.4,29.42,North,0,2.7,57.0,48,0.00,,,0.00,WUHU21623XXSP,2013-05-15 23:00:00,
2013-05-15 19:06:00,78.6,57.0,29.41,WNW,286,2.4,57.0,48,0.00,,,0.00,WUHU21623XXSP,2013-05-15 23:06:00,
2013-05-15 19:11:00,78.4,56.9,29.41,North,352,9.2,57.0,48,0.00,,,0.00,WUHU21623XXSP,2013-05-15 23:11:00,
2013-05-15 19:17:00,77.9,56.4,29.41,North,358,19.8,57.0,48,0.00,,,0.00,WUHU21623XXSP,2013-05-15 23:17:00,
2013-05-15 19:22:00,77.4,55.9,29.41,NW,315,0.0,57.0,48,0.00,,,0.00,WUHU21623XXSP,2013-05-15 23:22:00,
2013-05-15 19:27:00,77.0,55.6,29.41,SSW,202,0.0,57.0,48,0.00,,,0.00,WUHU21623XXSP,2013-05-15 23:27:00,
2013-05-15 19:32:00,76.5,55.1,29.41,NW,315,0.7,2.5,48,0.00,,,0.00,WUHU21623XXSP,2013-05-15 23:32:00,
2013-05-15 19:37:00,76.1,54.7,29.41,WNW,292,1.1,2.5,48,0.00,,,0.00,WUHU21623XXSP,2013-05-15 23:37:00,
2013-05-15 19:42:00,75.9,54.6,29.41,West,270,1.3,1.3,48,0.00,,,0.00,WUHU21623XXSP,2013-05-15 23:42:00,
2013-05-15 19:47:00,75.6,54.3,29.41,WSW,247,2.1,5.6,48,0.00,,,0.00,WUHU21623XXSP,2013-05-15 23:47:00,
2013-05-15 19:52:00,75.6,54.3,29.41,West,270,0.0,57.0,48,0.00,,,0.00,WUHU21623XXSP,2013-05-15 23:52:00,
2013-05-15 19:57:00,75.2,53.9,29.41,West,270,1.6,57.0,48,0.00,,,0.00,WUHU21623XXSP,2013-05-15 23:57:00,
2013-05-15 20:02:00,75.2,53.9,29.42,West,270,2.0,57.0,48,0.00,,,0.00,WUHU21623XXSP,2013-05-16 00:02:00,
2013-05-15 20:09:00,74.8,53.5,29.42,WNW,292,1.3,57.0,48,0.00,,,0.00,WUHU21623XXSP,2013-05-16 00:09:00,
2013-05-15 20:14:00,74.7,53.5,29.43,North,0,1.7,2.2,48,0.00,,,0.00,WUHU21623XXSP,2013-05-16 00:14:00,
2013-05-15 20:19:00,74.5,53.3,29.44,West,270,0.0,2.2,48,0.00,,,0.00,WUHU21623XXSP,2013-05-16 00:19:00,
2013-05-15 20:24:00,74.3,53.1,29.44,WNW,292,1.7,4.7,48,0.00,,,0.00,WUHU21623XXSP,2013-05-16 00:24:00,
2013-05-15 20:29:00,74.1,52.9,29.44,North,0,57.0,57.0,48,0.00,,,0.00,WUHU21623XXSP,2013-05-16 00:29:00,
2013-05-15 20:35:00,73.8,52.6,29.44,North,354,9.8,57.0,48,0.00,,,0.00,WUHU21623XXSP,2013-05-16 00:35:00,
2013-05-15 20:40:00,73.6,52.4,29.44,WNW,296,2.3,57.0,48,0.00,,,0.00,WUHU21623XXSP,2013-05-16 00:40:00,
2013-05-15 20:45:00,73.0,51.9,29.43,WNW,292,0.0,57.0,48,0.00,,,0.00,WUHU21623XXSP,2013-05-16 00:45:00,
2013-05-15 20:50:00,72.9,51.8,29.44,WNW,292,0.0,57.0,48,0.00,,,0.00,WUHU21623XXSP,2013-05-16 00:50:00,
2013-05-15 20:55:00,72.7,51.6,29.44,West,270,1.3,57.0,48,0.00,,,0.00,WUHU21623XXSP,2013-05-16 00:55:00,
2013-05-15 21:00:00,72.5,51.4,29.44,NNW,337,1.6,2.2,48,0.00,,,0.00,WUHU21623XXSP,2013-05-16 01:00:00,
2013-05-15 21:06:00,72.3,51.3,29.45,NW,315,0.0,2.2,48,0.00,,,0.00,WUHU21623XXSP,2013-05-16 01:06:00,
2013-05-15 21:11:00,72.1,51.1,29.44,NW,315,0.0,1.6,48,0.00,,,0.00,WUHU21623XXSP,2013-05-16 01:11:00,
2013-05-15 21:16:00,72.0,51.0,29.44,NW,315,0.0,0.0,48,0.00,,,0.00,WUHU21623XXSP,2013-05-16 01:16:00,
2013-05-15 21:21:00,71.8,50.8,29.43,NW,315,0.0,0.0,48,0.00,,,0.00,WUHU21623XXSP,2013-05-16 01:21:00,
2013-05-15 21:26:00,71.6,50.6,29.43,NW,315,0.0,0.0,48,0.00,,,0.00,WUHU21623XXSP,2013-05-16 01:26:00,
2013-05-15 21:31:00,71.2,50.2,29.44,NW,315,0.0,0.0,48,0.00,,,0.00,WUHU21623XXSP,2013-05-16 01:31:00,
2013-05-15 21:36:00,71.1,50.1,29.44,NW,315,0.0,0.0,48,0.00,,,0.00,WUHU21623XXSP,2013-05-16 01:36:00,
2013-05-15 21:42:00,70.7,49.8,29.45,NW,315,0.0,0.0,48,0.00,,,0.00,WUHU21623XXSP,2013-05-16 01:42:00,
2013-05-15 21:47:00,70.5,49.6,29.44,NW,315,0.0,0.0,48,0.00,,,0.00,WUHU21623XXSP,2013-05-16 01:47:00,
2013-05-15 21:52:00,70.3,49.4,29.45,NW,315,0.0,0.0,48,0.00,,,0.00,WUHU21623XXSP,2013-05-16 01:52:00,
2013-05-15 21:57:00,70.2,49.3,29.45,NW,315,0.0,0.0,48,0.00,,,0.00,WUHU21623XXSP,2013-05-16 01:57:00,
2013-05-15 22:02:00,70.0,49.1,29.45,NW,315,0.0,0.0,48,0.00,,,0.00,WUHU21623XXSP,2013-05-16 02:02:00,
2013-05-15 22:07:00,69.4,48.6,29.45,NW,315,0.0,0.0,48,0.00,,,0.00,WUHU21623XXSP,2013-05-16 02:07:00,
2013-05-15 22:12:00,69.3,48.5,29.46,NW,315,0.0,0.0,48,0.00,,,0.00,WUHU21623XXSP,2013-05-16 02:12:00,
2013-05-15 22:17:00,69.1,48.3,29.46,NW,315,0.0,0.0,48,0.00,,,0.00,WUHU21623XXSP,2013-05-16 02:17:00,
2013-05-15 22:22:00,68.7,47.9,29.46,North,0,0.0,0.0,48,0.00,,,0.00,WUHU21623XXSP,2013-05-16 02:22:00,
2013-05-15 22:27:00,68.7,47.9,29.46,NW,315,0.0,0.0,48,0.00,,,0.00,WUHU21623XXSP,2013-05-16 02:27:00,
2013-05-15 22:32:00,68.4,47.7,29.46,NW,315,0.0,0.0,48,0.00,,,0.00,WUHU21623XXSP,2013-05-16 02:32:00,
2013-05-15 22:37:00,68.4,47.7,29.46,NW,315,0.0,0.0,48,0.00,,,0.00,WUHU21623XXSP,2013-05-16 02:37:00,
2013-05-15 22:42:00,68.2,47.5,29.46,NW,315,0.0,0.0,48,0.00,,,0.00,WUHU21623XXSP,2013-05-16 02:42:00,
2013-05-15 22:47:00,68.2,47.5,29.46,NW,315,0.0,0.0,48,0.00,,,0.00,WUHU21623XXSP,2013-05-16 02:47:00,
2013-05-15 22:53:00,67.8,47.1,29.46,NW,315,0.0,0.0,48,0.00,,,0.00,WUHU21623XXSP,2013-05-16 02:53:00,
2013-05-15 22:58:00,67.5,46.8,29.46,NW,315,0.0,0.0,48,0.00,,,0.00,WUHU21623XXSP,2013-05-16 02:58:00,
2013-05-15 23:03:00,67.3,46.7,29.46,NW,315,0.0,0.0,48,0.00,,,0.00,WUHU21623XXSP,2013-05-16 03:03:00,
2013-05-15 23:08:00,67.1,46.5,29.46,NNW,337,0.0,0.0,48,0.00,,,0.00,WUHU21623XXSP,2013-05-16 03:08:00,
2013-05-15 23:13:00,66.9,46.3,29.46,NNW,337,0.0,0.0,48,0.00,,,0.00,WUHU21623XXSP,2013-05-16 03:13:00,
2013-05-15 23:18:00,66.9,46.3,29.46,NNW,337,0.0,0.0,48,0.00,,,0.00,WUHU21623XXSP,2013-05-16 03:18:00,
2013-05-15 23:23:00,66.7,46.1,29.46,NNW,337,0.0,0.0,48,0.00,,,0.00,WUHU21623XXSP,2013-05-16 03:23:00,
2013-05-15 23:28:00,66.6,46.0,29.46,NNW,337,0.0,0.0,48,0.00,,,0.00,WUHU21623XXSP,2013-05-16 03:28:00,
2013-05-15 23:33:00,66.6,46.0,29.47,NNW,337,0.0,0.0,48,0.00,,,0.00,WUHU21623XXSP,2013-05-16 03:33:00,
2013-05-15 23:38:00,66.2,45.6,29.46,NNW,337,0.0,0.0,48,0.00,,,0.00,WUHU21623XXSP,2013-05-16 03:38:00,
2013-05-15 23:43:00,65.8,45.3,29.47,NNW,337,0.0,0.0,48,0.00,,,0.00,WUHU21623XXSP,2013-05-16 03:43:00,
2013-05-15 23:48:00,65.7,45.2,29.47,NNW,337,0.0,0.0,48,0.00,,,0.00,WUHU21623XXSP,2013-05-16 03:48:00,
2013-05-15 23:54:00,65.5,45.0,29.47,NNW,337,0.0,0.0,48,0.00,,,0.00,WUHU21623XXSP,2013-05-16 03:54:00,
2013-05-15 23:59:00,65.3,44.8,29.47,NNW,337,0.0,0.0,48,0.00,,,0.00,WUHU21623XXSP,2013-05-16 03:59:00,